sensor_id;sensor_type;location;lat;lon;timestamp;temperature;humidity
11188;DHT22;5650;52.700;7.306;2022-12-18T00:00:04;-3.50;99.90
11188;DHT22;5650;52.700;7.306;2022-12-18T00:02:32;-3.50;99.90
11188;DHT22;5650;52.700;7.306;2022-12-18T00:05:01;-3.50;99.90
11188;DHT22;5650;52.700;7.306;2022-12-18T00:07:28;-3.50;99.90
11188;DHT22;5650;52.700;7.306;2022-12-18T00:09:58;-3.50;99.90
11188;DHT22;5650;52.700;7.306;2022-12-18T00:12:26;-3.50;99.90
11188;DHT22;5650;52.700;7.306;2022-12-18T00:14:53;-3.50;99.90
11188;DHT22;5650;52.700;7.306;2022-12-18T00:17:20;-3.60;99.90
11188;DHT22;5650;52.700;7.306;2022-12-18T00:19:47;-3.60;99.90
11188;DHT22;5650;52.700;7.306;2022-12-18T00:22:19;-3.60;99.90
11188;DHT22;5650;52.700;7.306;2022-12-18T00:24:55;-3.60;99.90
11188;DHT22;5650;52.700;7.306;2022-12-18T00:27:22;-3.70;99.90
11188;DHT22;5650;52.700;7.306;2022-12-18T00:29:49;-3.70;99.90
11188;DHT22;5650;52.700;7.306;2022-12-18T00:32:16;-3.70;99.90
11188;DHT22;5650;52.700;7.306;2022-12-18T00:34:43;-3.70;99.90
11188;DHT22;5650;52.700;7.306;2022-12-18T00:37:11;-3.70;99.90
11188;DHT22;5650;52.700;7.306;2022-12-18T00:39:39;-3.80;99.90
11188;DHT22;5650;52.700;7.306;2022-12-18T00:42:08;-3.80;99.90
11188;DHT22;5650;52.700;7.306;2022-12-18T00:44:54;-3.80;99.90
11188;DHT22;5650;52.700;7.306;2022-12-18T00:47:21;-3.80;99.90
11188;DHT22;5650;52.700;7.306;2022-12-18T00:49:48;-3.80;99.90
11188;DHT22;5650;52.700;7.306;2022-12-18T00:52:15;-3.70;99.90
11188;DHT22;5650;52.700;7.306;2022-12-18T00:54:44;-3.80;99.90
11188;DHT22;5650;52.700;7.306;2022-12-18T00:57:11;-3.70;99.90
11188;DHT22;5650;52.700;7.306;2022-12-18T00:59:38;-3.80;99.90
11188;DHT22;5650;52.700;7.306;2022-12-18T01:02:05;-3.80;99.90
11188;DHT22;5650;52.700;7.306;2022-12-18T01:04:33;-3.90;99.90
11188;DHT22;5650;52.700;7.306;2022-12-18T01:07:00;-3.90;99.90
11188;DHT22;5650;52.700;7.306;2022-12-18T01:09:28;-3.90;99.90
11188;DHT22;5650;52.700;7.306;2022-12-18T01:12:02;-4.00;99.90
11188;DHT22;5650;52.700;7.306;2022-12-18T01:14:29;-4.00;99.90
11188;DHT22;5650;52.700;7.306;2022-12-18T01:16:57;-4.00;99.90
11188;DHT22;5650;52.700;7.306;2022-12-18T01:19:24;-4.10;99.90
11188;DHT22;5650;52.700;7.306;2022-12-18T01:21:51;-4.10;99.90
11188;DHT22;5650;52.700;7.306;2022-12-18T01:24:18;-4.10;99.90
11188;DHT22;5650;52.700;7.306;2022-12-18T01:26:45;-4.10;99.90
11188;DHT22;5650;52.700;7.306;2022-12-18T01:29:29;-4.10;99.90
11188;DHT22;5650;52.700;7.306;2022-12-18T01:31:56;-4.10;99.90
11188;DHT22;5650;52.700;7.306;2022-12-18T01:34:23;-4.20;99.90
11188;DHT22;5650;52.700;7.306;2022-12-18T01:36:51;-4.20;99.90
11188;DHT22;5650;52.700;7.306;2022-12-18T01:39:19;-4.20;99.90
11188;DHT22;5650;52.700;7.306;2022-12-18T01:41:52;-4.30;99.90
11188;DHT22;5650;52.700;7.306;2022-12-18T01:45:02;-4.30;99.90
11188;DHT22;5650;52.700;7.306;2022-12-18T01:47:38;-4.30;99.90
11188;DHT22;5650;52.700;7.306;2022-12-18T01:50:12;-4.40;99.90
11188;DHT22;5650;52.700;7.306;2022-12-18T01:52:41;-4.40;99.90
11188;DHT22;5650;52.700;7.306;2022-12-18T01:55:10;-4.40;99.90
11188;DHT22;5650;52.700;7.306;2022-12-18T01:57:44;-4.50;99.90
11188;DHT22;5650;52.700;7.306;2022-12-18T02:00:17;-4.50;99.90
11188;DHT22;5650;52.700;7.306;2022-12-18T02:02:46;-4.60;99.90
11188;DHT22;5650;52.700;7.306;2022-12-18T02:05:16;-4.60;99.90
11188;DHT22;5650;52.700;7.306;2022-12-18T02:07:56;-4.60;99.90
11188;DHT22;5650;52.700;7.306;2022-12-18T02:10:32;-4.60;99.90
11188;DHT22;5650;52.700;7.306;2022-12-18T02:13:10;-4.70;99.90
11188;DHT22;5650;52.700;7.306;2022-12-18T02:15:45;-4.70;99.90
11188;DHT22;5650;52.700;7.306;2022-12-18T02:18:17;-4.70;99.90
11188;DHT22;5650;52.700;7.306;2022-12-18T02:20:48;-4.70;99.90
11188;DHT22;5650;52.700;7.306;2022-12-18T02:23:28;-4.70;99.90
11188;DHT22;5650;52.700;7.306;2022-12-18T02:26:14;-4.70;99.90
11188;DHT22;5650;52.700;7.306;2022-12-18T02:28:46;-4.70;99.90
11188;DHT22;5650;52.700;7.306;2022-12-18T02:31:16;-4.80;99.90
11188;DHT22;5650;52.700;7.306;2022-12-18T02:33:48;-4.80;99.90
11188;DHT22;5650;52.700;7.306;2022-12-18T02:36:16;-4.90;99.90
11188;DHT22;5650;52.700;7.306;2022-12-18T02:38:45;-4.90;99.90
11188;DHT22;5650;52.700;7.306;2022-12-18T02:41:16;-4.90;99.90
11188;DHT22;5650;52.700;7.306;2022-12-18T02:43:47;-5.00;99.90
11188;DHT22;5650;52.700;7.306;2022-12-18T02:46:27;-5.00;99.90
11188;DHT22;5650;52.700;7.306;2022-12-18T02:49:04;-5.00;99.90
11188;DHT22;5650;52.700;7.306;2022-12-18T02:51:39;-5.00;99.90
11188;DHT22;5650;52.700;7.306;2022-12-18T02:54:21;-5.10;99.90
11188;DHT22;5650;52.700;7.306;2022-12-18T02:56:55;-5.10;99.90
11188;DHT22;5650;52.700;7.306;2022-12-18T02:59:28;-5.10;99.90
11188;DHT22;5650;52.700;7.306;2022-12-18T03:02:24;-5.10;99.90
11188;DHT22;5650;52.700;7.306;2022-12-18T03:04:58;-5.00;99.90
11188;DHT22;5650;52.700;7.306;2022-12-18T03:07:33;-5.00;99.90
11188;DHT22;5650;52.700;7.306;2022-12-18T03:10:01;-5.00;99.90
11188;DHT22;5650;52.700;7.306;2022-12-18T03:12:34;-5.10;99.90
11188;DHT22;5650;52.700;7.306;2022-12-18T03:15:06;-5.10;99.90
11188;DHT22;5650;52.700;7.306;2022-12-18T03:17:37;-5.10;99.90
11188;DHT22;5650;52.700;7.306;2022-12-18T03:20:09;-5.10;99.90
11188;DHT22;5650;52.700;7.306;2022-12-18T03:22:38;-5.10;99.90
11188;DHT22;5650;52.700;7.306;2022-12-18T03:25:12;-5.10;99.90
11188;DHT22;5650;52.700;7.306;2022-12-18T03:27:44;-5.10;99.90
11188;DHT22;5650;52.700;7.306;2022-12-18T03:30:16;-5.20;99.90
11188;DHT22;5650;52.700;7.306;2022-12-18T03:32:47;-5.20;99.90
11188;DHT22;5650;52.700;7.306;2022-12-18T03:35:23;-5.20;99.90
11188;DHT22;5650;52.700;7.306;2022-12-18T03:37:51;-5.20;99.90
11188;DHT22;5650;52.700;7.306;2022-12-18T03:40:25;-5.20;99.90
11188;DHT22;5650;52.700;7.306;2022-12-18T03:43:01;-5.30;99.90
11188;DHT22;5650;52.700;7.306;2022-12-18T03:45:36;-5.20;99.90
11188;DHT22;5650;52.700;7.306;2022-12-18T03:48:10;-5.20;99.90
11188;DHT22;5650;52.700;7.306;2022-12-18T03:50:47;-5.30;99.90
11188;DHT22;5650;52.700;7.306;2022-12-18T03:53:25;-5.30;99.90
11188;DHT22;5650;52.700;7.306;2022-12-18T03:55:55;-5.30;99.90
11188;DHT22;5650;52.700;7.306;2022-12-18T03:58:27;-5.30;99.90
11188;DHT22;5650;52.700;7.306;2022-12-18T04:00:57;-5.30;99.90
11188;DHT22;5650;52.700;7.306;2022-12-18T04:03:28;-5.30;99.90
11188;DHT22;5650;52.700;7.306;2022-12-18T04:05:56;-5.40;99.90
11188;DHT22;5650;52.700;7.306;2022-12-18T04:08:25;-5.40;99.90
11188;DHT22;5650;52.700;7.306;2022-12-18T04:10:53;-5.40;99.90
11188;DHT22;5650;52.700;7.306;2022-12-18T04:13:23;-5.40;99.90
11188;DHT22;5650;52.700;7.306;2022-12-18T04:15:52;-5.50;99.90
11188;DHT22;5650;52.700;7.306;2022-12-18T04:18:25;-5.40;99.90
11188;DHT22;5650;52.700;7.306;2022-12-18T04:20:52;-5.50;99.90
11188;DHT22;5650;52.700;7.306;2022-12-18T04:23:20;-5.50;99.90
11188;DHT22;5650;52.700;7.306;2022-12-18T04:25:47;-5.50;99.90
11188;DHT22;5650;52.700;7.306;2022-12-18T04:28:15;-5.50;99.90
11188;DHT22;5650;52.700;7.306;2022-12-18T04:30:42;-5.50;99.90
11188;DHT22;5650;52.700;7.306;2022-12-18T04:33:11;-5.50;99.90
11188;DHT22;5650;52.700;7.306;2022-12-18T04:35:38;-5.50;99.90
11188;DHT22;5650;52.700;7.306;2022-12-18T04:38:06;-5.50;99.90
11188;DHT22;5650;52.700;7.306;2022-12-18T04:40:34;-5.50;99.90
11188;DHT22;5650;52.700;7.306;2022-12-18T04:43:04;-5.60;99.90
11188;DHT22;5650;52.700;7.306;2022-12-18T04:45:34;-5.50;99.90
11188;DHT22;5650;52.700;7.306;2022-12-18T04:48:06;-5.50;99.90
11188;DHT22;5650;52.700;7.306;2022-12-18T04:50:35;-5.60;99.90
11188;DHT22;5650;52.700;7.306;2022-12-18T04:53:02;-5.50;99.90
11188;DHT22;5650;52.700;7.306;2022-12-18T04:55:36;-5.50;99.90
11188;DHT22;5650;52.700;7.306;2022-12-18T04:58:03;-5.50;99.90
11188;DHT22;5650;52.700;7.306;2022-12-18T05:00:33;-5.50;99.90
11188;DHT22;5650;52.700;7.306;2022-12-18T05:03:03;-5.50;99.90
11188;DHT22;5650;52.700;7.306;2022-12-18T05:05:38;-5.50;99.90
11188;DHT22;5650;52.700;7.306;2022-12-18T05:08:05;-5.50;99.90
11188;DHT22;5650;52.700;7.306;2022-12-18T05:10:32;-5.50;99.90
11188;DHT22;5650;52.700;7.306;2022-12-18T05:13:05;-5.50;99.90
11188;DHT22;5650;52.700;7.306;2022-12-18T05:15:41;-5.50;99.90
11188;DHT22;5650;52.700;7.306;2022-12-18T05:18:08;-5.50;99.90
11188;DHT22;5650;52.700;7.306;2022-12-18T05:20:40;-5.50;99.90
11188;DHT22;5650;52.700;7.306;2022-12-18T05:23:07;-5.50;99.90
11188;DHT22;5650;52.700;7.306;2022-12-18T05:25:34;-5.50;99.90
11188;DHT22;5650;52.700;7.306;2022-12-18T05:28:01;-5.50;99.90
11188;DHT22;5650;52.700;7.306;2022-12-18T05:30:29;-5.60;99.90
11188;DHT22;5650;52.700;7.306;2022-12-18T05:32:56;-5.60;99.90
11188;DHT22;5650;52.700;7.306;2022-12-18T05:35:23;-5.60;99.90
11188;DHT22;5650;52.700;7.306;2022-12-18T05:37:52;-5.70;99.90
11188;DHT22;5650;52.700;7.306;2022-12-18T05:40:19;-5.70;99.90
11188;DHT22;5650;52.700;7.306;2022-12-18T05:42:49;-5.70;99.90
11188;DHT22;5650;52.700;7.306;2022-12-18T05:45:17;-5.70;99.90
11188;DHT22;5650;52.700;7.306;2022-12-18T05:47:44;-5.70;99.90
11188;DHT22;5650;52.700;7.306;2022-12-18T05:50:11;-5.70;99.90
11188;DHT22;5650;52.700;7.306;2022-12-18T05:52:38;-5.70;99.90
11188;DHT22;5650;52.700;7.306;2022-12-18T05:55:10;-5.80;99.90
11188;DHT22;5650;52.700;7.306;2022-12-18T05:57:40;-5.80;99.90
11188;DHT22;5650;52.700;7.306;2022-12-18T06:00:11;-5.80;99.90
11188;DHT22;5650;52.700;7.306;2022-12-18T06:02:39;-5.80;99.90
11188;DHT22;5650;52.700;7.306;2022-12-18T06:05:09;-5.80;99.90
11188;DHT22;5650;52.700;7.306;2022-12-18T06:07:36;-5.80;99.90
11188;DHT22;5650;52.700;7.306;2022-12-18T06:10:04;-5.90;99.90
11188;DHT22;5650;52.700;7.306;2022-12-18T06:12:33;-5.90;99.90
11188;DHT22;5650;52.700;7.306;2022-12-18T06:15:04;-6.00;99.90
11188;DHT22;5650;52.700;7.306;2022-12-18T06:17:32;-6.00;99.90
11188;DHT22;5650;52.700;7.306;2022-12-18T06:19:59;-6.00;99.90
11188;DHT22;5650;52.700;7.306;2022-12-18T06:22:31;-6.00;99.90
11188;DHT22;5650;52.700;7.306;2022-12-18T06:24:58;-6.10;99.90
11188;DHT22;5650;52.700;7.306;2022-12-18T06:27:26;-6.10;99.90
11188;DHT22;5650;52.700;7.306;2022-12-18T06:29:57;-6.10;99.90
11188;DHT22;5650;52.700;7.306;2022-12-18T06:32:24;-6.10;99.90
11188;DHT22;5650;52.700;7.306;2022-12-18T06:34:54;-6.10;99.90
11188;DHT22;5650;52.700;7.306;2022-12-18T06:37:22;-6.10;99.90
11188;DHT22;5650;52.700;7.306;2022-12-18T06:39:54;-6.10;99.90
11188;DHT22;5650;52.700;7.306;2022-12-18T06:42:29;-6.10;99.90
11188;DHT22;5650;52.700;7.306;2022-12-18T06:44:57;-6.10;99.90
11188;DHT22;5650;52.700;7.306;2022-12-18T06:47:24;-6.20;99.90
11188;DHT22;5650;52.700;7.306;2022-12-18T06:49:51;-6.20;99.90
11188;DHT22;5650;52.700;7.306;2022-12-18T06:52:19;-6.20;99.90
11188;DHT22;5650;52.700;7.306;2022-12-18T06:54:46;-6.30;99.90
11188;DHT22;5650;52.700;7.306;2022-12-18T06:57:13;-6.30;99.90
11188;DHT22;5650;52.700;7.306;2022-12-18T06:59:40;-6.30;99.90
11188;DHT22;5650;52.700;7.306;2022-12-18T07:02:12;-6.30;99.90
11188;DHT22;5650;52.700;7.306;2022-12-18T07:04:40;-6.30;99.90
11188;DHT22;5650;52.700;7.306;2022-12-18T07:07:07;-6.40;99.90
11188;DHT22;5650;52.700;7.306;2022-12-18T07:09:34;-6.40;99.90
11188;DHT22;5650;52.700;7.306;2022-12-18T07:12:01;-6.40;99.90
11188;DHT22;5650;52.700;7.306;2022-12-18T07:14:30;-6.50;99.90
11188;DHT22;5650;52.700;7.306;2022-12-18T07:16:57;-6.50;99.90
11188;DHT22;5650;52.700;7.306;2022-12-18T07:19:29;-6.50;99.90
11188;DHT22;5650;52.700;7.306;2022-12-18T07:21:56;-6.40;99.90
11188;DHT22;5650;52.700;7.306;2022-12-18T07:24:26;-6.40;99.90
11188;DHT22;5650;52.700;7.306;2022-12-18T07:26:54;-6.40;99.90
11188;DHT22;5650;52.700;7.306;2022-12-18T07:29:21;-6.40;99.90
11188;DHT22;5650;52.700;7.306;2022-12-18T07:31:48;-6.40;99.90
11188;DHT22;5650;52.700;7.306;2022-12-18T07:34:15;-6.40;99.90
11188;DHT22;5650;52.700;7.306;2022-12-18T07:36:44;-6.40;99.90
11188;DHT22;5650;52.700;7.306;2022-12-18T07:39:12;-6.40;99.90
11188;DHT22;5650;52.700;7.306;2022-12-18T07:41:39;-6.30;99.90
11188;DHT22;5650;52.700;7.306;2022-12-18T07:44:12;-6.30;99.90
11188;DHT22;5650;52.700;7.306;2022-12-18T07:46:39;-6.30;99.90
11188;DHT22;5650;52.700;7.306;2022-12-18T07:49:06;-6.30;99.90
11188;DHT22;5650;52.700;7.306;2022-12-18T07:51:34;-6.30;99.90
11188;DHT22;5650;52.700;7.306;2022-12-18T07:54:02;-6.20;99.90
11188;DHT22;5650;52.700;7.306;2022-12-18T07:56:33;-6.20;99.90
11188;DHT22;5650;52.700;7.306;2022-12-18T07:59:00;-6.20;99.90
11188;DHT22;5650;52.700;7.306;2022-12-18T08:01:27;-6.10;99.90
11188;DHT22;5650;52.700;7.306;2022-12-18T08:04:01;-6.10;99.90
11188;DHT22;5650;52.700;7.306;2022-12-18T08:06:30;-6.00;99.90
11188;DHT22;5650;52.700;7.306;2022-12-18T08:08:57;-6.00;99.90
11188;DHT22;5650;52.700;7.306;2022-12-18T08:11:27;-6.00;99.90
11188;DHT22;5650;52.700;7.306;2022-12-18T08:13:55;-5.90;99.90
11188;DHT22;5650;52.700;7.306;2022-12-18T08:16:23;-5.80;99.90
11188;DHT22;5650;52.700;7.306;2022-12-18T08:18:51;-5.80;99.90
11188;DHT22;5650;52.700;7.306;2022-12-18T08:21:21;-5.70;99.90
11188;DHT22;5650;52.700;7.306;2022-12-18T08:23:49;-5.60;99.90
11188;DHT22;5650;52.700;7.306;2022-12-18T08:26:16;-5.50;99.90
11188;DHT22;5650;52.700;7.306;2022-12-18T08:28:45;-5.50;99.90
11188;DHT22;5650;52.700;7.306;2022-12-18T08:31:12;-5.40;99.90
11188;DHT22;5650;52.700;7.306;2022-12-18T08:33:40;-5.30;99.90
11188;DHT22;5650;52.700;7.306;2022-12-18T08:36:09;-5.30;99.90
11188;DHT22;5650;52.700;7.306;2022-12-18T08:38:36;-5.20;99.90
11188;DHT22;5650;52.700;7.306;2022-12-18T08:41:06;-5.20;99.90
11188;DHT22;5650;52.700;7.306;2022-12-18T08:43:33;-5.10;99.90
11188;DHT22;5650;52.700;7.306;2022-12-18T08:46:20;-5.00;99.90
11188;DHT22;5650;52.700;7.306;2022-12-18T08:48:49;-4.90;99.90
11188;DHT22;5650;52.700;7.306;2022-12-18T08:51:17;-4.90;99.90
11188;DHT22;5650;52.700;7.306;2022-12-18T08:53:45;-4.80;99.90
11188;DHT22;5650;52.700;7.306;2022-12-18T08:56:13;-4.80;99.90
11188;DHT22;5650;52.700;7.306;2022-12-18T08:58:43;-4.70;99.90
11188;DHT22;5650;52.700;7.306;2022-12-18T09:01:21;-4.70;99.90
11188;DHT22;5650;52.700;7.306;2022-12-18T09:03:48;-4.70;99.90
11188;DHT22;5650;52.700;7.306;2022-12-18T09:06:17;-4.60;99.90
11188;DHT22;5650;52.700;7.306;2022-12-18T09:08:44;-4.60;99.90
11188;DHT22;5650;52.700;7.306;2022-12-18T09:11:20;-4.50;99.90
11188;DHT22;5650;52.700;7.306;2022-12-18T09:13:48;-4.50;99.90
11188;DHT22;5650;52.700;7.306;2022-12-18T09:16:15;-4.40;99.90
11188;DHT22;5650;52.700;7.306;2022-12-18T09:18:44;-4.40;99.90
11188;DHT22;5650;52.700;7.306;2022-12-18T09:21:14;-4.30;99.90
11188;DHT22;5650;52.700;7.306;2022-12-18T09:23:49;-4.30;99.90
11188;DHT22;5650;52.700;7.306;2022-12-18T09:26:20;-4.20;99.90
11188;DHT22;5650;52.700;7.306;2022-12-18T09:28:50;-4.20;99.90
11188;DHT22;5650;52.700;7.306;2022-12-18T09:31:19;-4.10;99.90
11188;DHT22;5650;52.700;7.306;2022-12-18T09:33:48;-4.10;99.90
11188;DHT22;5650;52.700;7.306;2022-12-18T09:36:16;-4.00;99.90
11188;DHT22;5650;52.700;7.306;2022-12-18T09:38:44;-3.90;99.90
11188;DHT22;5650;52.700;7.306;2022-12-18T09:41:21;-3.80;99.90
11188;DHT22;5650;52.700;7.306;2022-12-18T09:43:55;-3.80;99.90
11188;DHT22;5650;52.700;7.306;2022-12-18T09:46:30;-3.70;99.90
11188;DHT22;5650;52.700;7.306;2022-12-18T09:49:01;-3.60;99.90
11188;DHT22;5650;52.700;7.306;2022-12-18T09:51:32;-3.50;99.90
11188;DHT22;5650;52.700;7.306;2022-12-18T09:54:03;-3.40;99.90
11188;DHT22;5650;52.700;7.306;2022-12-18T09:56:35;-3.40;99.90
11188;DHT22;5650;52.700;7.306;2022-12-18T09:59:04;-3.30;99.90
11188;DHT22;5650;52.700;7.306;2022-12-18T10:01:32;-3.20;99.90
11188;DHT22;5650;52.700;7.306;2022-12-18T10:04:01;-3.10;99.90
11188;DHT22;5650;52.700;7.306;2022-12-18T10:06:39;-3.10;99.90
11188;DHT22;5650;52.700;7.306;2022-12-18T10:09:19;-3.00;99.90
11188;DHT22;5650;52.700;7.306;2022-12-18T10:11:55;-2.90;99.90
11188;DHT22;5650;52.700;7.306;2022-12-18T10:14:30;-2.80;99.90
11188;DHT22;5650;52.700;7.306;2022-12-18T10:17:12;-2.70;99.90
11188;DHT22;5650;52.700;7.306;2022-12-18T10:19:46;-2.60;99.90
11188;DHT22;5650;52.700;7.306;2022-12-18T10:22:24;-2.50;99.90
11188;DHT22;5650;52.700;7.306;2022-12-18T10:25:01;-2.40;99.90
11188;DHT22;5650;52.700;7.306;2022-12-18T10:27:31;-2.30;99.90
11188;DHT22;5650;52.700;7.306;2022-12-18T10:30:07;-2.30;99.90
11188;DHT22;5650;52.700;7.306;2022-12-18T10:32:41;-2.30;99.90
11188;DHT22;5650;52.700;7.306;2022-12-18T10:35:18;-2.20;99.90
11188;DHT22;5650;52.700;7.306;2022-12-18T10:38:03;-2.20;99.90
11188;DHT22;5650;52.700;7.306;2022-12-18T10:40:49;-2.20;99.90
11188;DHT22;5650;52.700;7.306;2022-12-18T10:43:21;-2.30;99.90
11188;DHT22;5650;52.700;7.306;2022-12-18T10:46:14;-2.30;99.90
11188;DHT22;5650;52.700;7.306;2022-12-18T10:48:57;-2.40;99.90
11188;DHT22;5650;52.700;7.306;2022-12-18T10:51:32;-2.40;99.90
11188;DHT22;5650;52.700;7.306;2022-12-18T10:54:02;-2.40;99.90
11188;DHT22;5650;52.700;7.306;2022-12-18T10:56:38;-2.50;99.90
11188;DHT22;5650;52.700;7.306;2022-12-18T10:59:10;-2.50;99.90
11188;DHT22;5650;52.700;7.306;2022-12-18T11:01:57;-2.50;99.90
11188;DHT22;5650;52.700;7.306;2022-12-18T11:04:29;-2.50;99.90
11188;DHT22;5650;52.700;7.306;2022-12-18T11:06:59;-2.50;99.90
11188;DHT22;5650;52.700;7.306;2022-12-18T11:09:28;-2.50;99.90
11188;DHT22;5650;52.700;7.306;2022-12-18T11:12:04;-2.40;99.90
11188;DHT22;5650;52.700;7.306;2022-12-18T11:14:41;-2.30;99.90
11188;DHT22;5650;52.700;7.306;2022-12-18T11:17:18;-2.30;99.90
11188;DHT22;5650;52.700;7.306;2022-12-18T11:19:52;-2.30;99.90
11188;DHT22;5650;52.700;7.306;2022-12-18T11:22:23;-2.20;99.90
11188;DHT22;5650;52.700;7.306;2022-12-18T11:25:05;-2.20;99.90
11188;DHT22;5650;52.700;7.306;2022-12-18T11:27:35;-2.20;99.90
11188;DHT22;5650;52.700;7.306;2022-12-18T11:30:13;-2.10;99.90
11188;DHT22;5650;52.700;7.306;2022-12-18T11:32:56;-2.00;99.90
11188;DHT22;5650;52.700;7.306;2022-12-18T11:35:32;-2.00;99.90
11188;DHT22;5650;52.700;7.306;2022-12-18T11:38:06;-1.90;99.90
11188;DHT22;5650;52.700;7.306;2022-12-18T11:40:41;-1.90;99.90
11188;DHT22;5650;52.700;7.306;2022-12-18T11:43:14;-1.90;99.90
11188;DHT22;5650;52.700;7.306;2022-12-18T11:45:52;-1.80;99.90
11188;DHT22;5650;52.700;7.306;2022-12-18T11:48:24;-1.80;99.90
11188;DHT22;5650;52.700;7.306;2022-12-18T11:51:02;-1.80;99.90
11188;DHT22;5650;52.700;7.306;2022-12-18T11:53:35;-1.70;99.90
11188;DHT22;5650;52.700;7.306;2022-12-18T11:56:13;-1.70;99.90
11188;DHT22;5650;52.700;7.306;2022-12-18T11:58:47;-1.70;99.90
11188;DHT22;5650;52.700;7.306;2022-12-18T12:01:31;-1.60;99.90
11188;DHT22;5650;52.700;7.306;2022-12-18T12:04:31;-1.60;99.90
11188;DHT22;5650;52.700;7.306;2022-12-18T12:07:11;-1.60;99.90
11188;DHT22;5650;52.700;7.306;2022-12-18T12:09:46;-1.60;99.90
11188;DHT22;5650;52.700;7.306;2022-12-18T12:12:27;-1.60;99.90
11188;DHT22;5650;52.700;7.306;2022-12-18T12:15:17;-1.60;99.90
11188;DHT22;5650;52.700;7.306;2022-12-18T12:17:53;-1.60;99.90
11188;DHT22;5650;52.700;7.306;2022-12-18T12:20:24;-1.60;99.90
11188;DHT22;5650;52.700;7.306;2022-12-18T12:23:01;-1.60;99.90
11188;DHT22;5650;52.700;7.306;2022-12-18T12:25:37;-1.60;99.90
11188;DHT22;5650;52.700;7.306;2022-12-18T12:28:28;-1.60;99.90
11188;DHT22;5650;52.700;7.306;2022-12-18T12:31:16;-1.60;99.90
11188;DHT22;5650;52.700;7.306;2022-12-18T12:33:56;-1.60;99.90
11188;DHT22;5650;52.700;7.306;2022-12-18T12:36:34;-1.60;99.90
11188;DHT22;5650;52.700;7.306;2022-12-18T12:39:11;-1.60;99.90
11188;DHT22;5650;52.700;7.306;2022-12-18T12:41:50;-1.60;99.90
11188;DHT22;5650;52.700;7.306;2022-12-18T12:44:38;-1.60;99.90
11188;DHT22;5650;52.700;7.306;2022-12-18T12:47:16;-1.60;99.90
11188;DHT22;5650;52.700;7.306;2022-12-18T12:49:45;-1.60;99.90
11188;DHT22;5650;52.700;7.306;2022-12-18T12:52:24;-1.60;99.90
11188;DHT22;5650;52.700;7.306;2022-12-18T12:55:02;-1.60;99.90
11188;DHT22;5650;52.700;7.306;2022-12-18T12:57:36;-1.60;99.90
11188;DHT22;5650;52.700;7.306;2022-12-18T13:00:10;-1.60;99.90
11188;DHT22;5650;52.700;7.306;2022-12-18T13:02:42;-1.60;99.90
11188;DHT22;5650;52.700;7.306;2022-12-18T13:05:17;-1.60;99.90
11188;DHT22;5650;52.700;7.306;2022-12-18T13:07:50;-1.60;99.90
11188;DHT22;5650;52.700;7.306;2022-12-18T13:10:32;-1.60;99.90
11188;DHT22;5650;52.700;7.306;2022-12-18T13:13:03;-1.50;99.90
11188;DHT22;5650;52.700;7.306;2022-12-18T13:15:37;-1.50;99.90
11188;DHT22;5650;52.700;7.306;2022-12-18T13:18:13;-1.50;99.90
11188;DHT22;5650;52.700;7.306;2022-12-18T13:20:45;-1.50;99.90
11188;DHT22;5650;52.700;7.306;2022-12-18T13:23:36;-1.50;99.90
11188;DHT22;5650;52.700;7.306;2022-12-18T13:26:29;-1.50;99.90
11188;DHT22;5650;52.700;7.306;2022-12-18T13:29:00;-1.50;99.90
11188;DHT22;5650;52.700;7.306;2022-12-18T13:31:58;-1.50;99.90
11188;DHT22;5650;52.700;7.306;2022-12-18T13:34:29;-1.50;99.90
11188;DHT22;5650;52.700;7.306;2022-12-18T13:40:05;-1.50;99.90
11188;DHT22;5650;52.700;7.306;2022-12-18T13:42:50;-1.40;99.90
11188;DHT22;5650;52.700;7.306;2022-12-18T13:45:42;-1.40;99.90
11188;DHT22;5650;52.700;7.306;2022-12-18T13:48:21;-1.40;99.90
11188;DHT22;5650;52.700;7.306;2022-12-18T13:50:53;-1.40;99.90
11188;DHT22;5650;52.700;7.306;2022-12-18T13:53:24;-1.40;99.90
11188;DHT22;5650;52.700;7.306;2022-12-18T13:55:55;-1.40;99.90
11188;DHT22;5650;52.700;7.306;2022-12-18T13:58:25;-1.40;99.90
11188;DHT22;5650;52.700;7.306;2022-12-18T14:00:56;-1.40;99.90
11188;DHT22;5650;52.700;7.306;2022-12-18T14:03:28;-1.30;99.90
11188;DHT22;5650;52.700;7.306;2022-12-18T14:06:00;-1.40;99.90
11188;DHT22;5650;52.700;7.306;2022-12-18T14:08:38;-1.40;99.90
11188;DHT22;5650;52.700;7.306;2022-12-18T14:11:06;-1.40;99.90
11188;DHT22;5650;52.700;7.306;2022-12-18T14:13:36;-1.40;99.90
11188;DHT22;5650;52.700;7.306;2022-12-18T14:16:06;-1.30;99.90
11188;DHT22;5650;52.700;7.306;2022-12-18T14:18:43;-1.40;99.90
11188;DHT22;5650;52.700;7.306;2022-12-18T14:21:21;-1.40;99.90
11188;DHT22;5650;52.700;7.306;2022-12-18T14:23:48;-1.40;99.90
11188;DHT22;5650;52.700;7.306;2022-12-18T14:26:29;-1.40;99.90
11188;DHT22;5650;52.700;7.306;2022-12-18T14:28:59;-1.40;99.90
11188;DHT22;5650;52.700;7.306;2022-12-18T14:31:30;-1.40;99.90
11188;DHT22;5650;52.700;7.306;2022-12-18T14:34:03;-1.40;99.90
11188;DHT22;5650;52.700;7.306;2022-12-18T14:36:30;-1.40;99.90
11188;DHT22;5650;52.700;7.306;2022-12-18T14:38:58;-1.40;99.90
11188;DHT22;5650;52.700;7.306;2022-12-18T14:41:26;-1.50;99.90
11188;DHT22;5650;52.700;7.306;2022-12-18T14:43:54;-1.50;99.90
11188;DHT22;5650;52.700;7.306;2022-12-18T14:46:34;-1.50;99.90
11188;DHT22;5650;52.700;7.306;2022-12-18T14:49:04;-1.50;99.90
11188;DHT22;5650;52.700;7.306;2022-12-18T14:51:36;-1.60;99.90
11188;DHT22;5650;52.700;7.306;2022-12-18T14:54:13;-1.50;99.90
11188;DHT22;5650;52.700;7.306;2022-12-18T14:56:47;-1.60;99.90
11188;DHT22;5650;52.700;7.306;2022-12-18T14:59:17;-1.50;99.90
11188;DHT22;5650;52.700;7.306;2022-12-18T15:01:48;-1.50;99.90
11188;DHT22;5650;52.700;7.306;2022-12-18T15:04:27;-1.50;99.90
11188;DHT22;5650;52.700;7.306;2022-12-18T15:07:26;-1.50;99.90
11188;DHT22;5650;52.700;7.306;2022-12-18T15:10:04;-1.50;99.90
11188;DHT22;5650;52.700;7.306;2022-12-18T15:12:37;-1.50;99.90
11188;DHT22;5650;52.700;7.306;2022-12-18T15:15:44;-1.50;99.90
11188;DHT22;5650;52.700;7.306;2022-12-18T15:18:17;-1.50;99.90
11188;DHT22;5650;52.700;7.306;2022-12-18T15:20:47;-1.50;99.90
11188;DHT22;5650;52.700;7.306;2022-12-18T15:23:17;-1.50;99.90
11188;DHT22;5650;52.700;7.306;2022-12-18T15:25:46;-1.50;99.90
11188;DHT22;5650;52.700;7.306;2022-12-18T15:28:22;-1.50;99.90
11188;DHT22;5650;52.700;7.306;2022-12-18T15:31:02;-1.40;99.90
11188;DHT22;5650;52.700;7.306;2022-12-18T15:33:35;-1.40;99.90
11188;DHT22;5650;52.700;7.306;2022-12-18T15:36:05;-1.40;99.90
11188;DHT22;5650;52.700;7.306;2022-12-18T15:38:32;-1.40;99.90
11188;DHT22;5650;52.700;7.306;2022-12-18T15:41:05;-1.40;99.90
11188;DHT22;5650;52.700;7.306;2022-12-18T15:43:38;-1.30;99.90
11188;DHT22;5650;52.700;7.306;2022-12-18T15:46:12;-1.30;99.90
11188;DHT22;5650;52.700;7.306;2022-12-18T15:48:42;-1.30;99.90
11188;DHT22;5650;52.700;7.306;2022-12-18T15:51:16;-1.30;99.90
11188;DHT22;5650;52.700;7.306;2022-12-18T15:53:44;-1.30;99.90
11188;DHT22;5650;52.700;7.306;2022-12-18T15:56:15;-1.30;99.90
11188;DHT22;5650;52.700;7.306;2022-12-18T15:58:59;-1.30;99.90
11188;DHT22;5650;52.700;7.306;2022-12-18T16:01:28;-1.20;99.90
11188;DHT22;5650;52.700;7.306;2022-12-18T16:03:57;-1.20;99.90
11188;DHT22;5650;52.700;7.306;2022-12-18T16:06:27;-1.20;99.90
11188;DHT22;5650;52.700;7.306;2022-12-18T16:08:54;-1.30;99.90
11188;DHT22;5650;52.700;7.306;2022-12-18T16:11:24;-1.20;99.90
11188;DHT22;5650;52.700;7.306;2022-12-18T16:14:08;-1.20;99.90
11188;DHT22;5650;52.700;7.306;2022-12-18T16:16:38;-1.20;99.90
11188;DHT22;5650;52.700;7.306;2022-12-18T16:19:07;-1.20;99.90